sensor_id;sensor_type;location;lat;lon;timestamp;temperature;humidity
54680;DHT22;40578;53.178;5.846;2023-08-08T00:01:30;14.80;99.90
54680;DHT22;40578;53.178;5.846;2023-08-08T00:03:55;14.80;99.90
54680;DHT22;40578;53.178;5.846;2023-08-08T00:06:21;14.80;99.90
54680;DHT22;40578;53.178;5.846;2023-08-08T00:08:46;14.70;99.90
54680;DHT22;40578;53.178;5.846;2023-08-08T00:11:12;14.70;99.90
54680;DHT22;40578;53.178;5.846;2023-08-08T00:13:38;14.70;99.90
54680;DHT22;40578;53.178;5.846;2023-08-08T00:16:04;14.70;99.90
54680;DHT22;40578;53.178;5.846;2023-08-08T00:18:30;14.70;99.90
54680;DHT22;40578;53.178;5.846;2023-08-08T00:20:56;14.80;99.90
54680;DHT22;40578;53.178;5.846;2023-08-08T00:23:22;14.60;99.90
54680;DHT22;40578;53.178;5.846;2023-08-08T00:25:47;14.60;99.90
54680;DHT22;40578;53.178;5.846;2023-08-08T00:28:15;14.60;99.90
54680;DHT22;40578;53.178;5.846;2023-08-08T00:30:42;14.60;99.90
54680;DHT22;40578;53.178;5.846;2023-08-08T00:33:07;14.50;99.90
54680;DHT22;40578;53.178;5.846;2023-08-08T00:35:33;14.40;99.90
54680;DHT22;40578;53.178;5.846;2023-08-08T00:37:58;14.40;99.90
54680;DHT22;40578;53.178;5.846;2023-08-08T00:40:24;14.30;99.90
54680;DHT22;40578;53.178;5.846;2023-08-08T00:42:49;14.50;99.90
54680;DHT22;40578;53.178;5.846;2023-08-08T00:45:15;14.20;99.90
54680;DHT22;40578;53.178;5.846;2023-08-08T00:47:41;14.20;99.90
54680;DHT22;40578;53.178;5.846;2023-08-08T00:50:07;14.20;99.90
54680;DHT22;40578;53.178;5.846;2023-08-08T00:52:33;14.20;99.90
54680;DHT22;40578;53.178;5.846;2023-08-08T00:54:59;14.10;99.90
54680;DHT22;40578;53.178;5.846;2023-08-08T00:57:25;14.10;99.90
54680;DHT22;40578;53.178;5.846;2023-08-08T00:59:51;14.10;99.90
54680;DHT22;40578;53.178;5.846;2023-08-08T01:02:17;14.00;99.90
54680;DHT22;40578;53.178;5.846;2023-08-08T01:04:42;14.00;99.90
54680;DHT22;40578;53.178;5.846;2023-08-08T01:07:19;14.00;99.90
54680;DHT22;40578;53.178;5.846;2023-08-08T01:10:05;13.90;99.90
54680;DHT22;40578;53.178;5.846;2023-08-08T01:12:40;13.90;99.90
54680;DHT22;40578;53.178;5.846;2023-08-08T01:15:07;13.90;99.90
54680;DHT22;40578;53.178;5.846;2023-08-08T01:17:35;13.90;99.90
54680;DHT22;40578;53.178;5.846;2023-08-08T01:20:03;14.50;99.90
54680;DHT22;40578;53.178;5.846;2023-08-08T01:22:39;13.90;99.90
54680;DHT22;40578;53.178;5.846;2023-08-08T01:25:06;13.80;99.90
54680;DHT22;40578;53.178;5.846;2023-08-08T01:27:33;13.80;99.90
54680;DHT22;40578;53.178;5.846;2023-08-08T01:29:59;13.90;99.90
54680;DHT22;40578;53.178;5.846;2023-08-08T01:32:25;14.00;99.90
54680;DHT22;40578;53.178;5.846;2023-08-08T01:34:51;13.90;99.90
54680;DHT22;40578;53.178;5.846;2023-08-08T01:37:20;13.80;99.90
54680;DHT22;40578;53.178;5.846;2023-08-08T01:39:48;13.70;99.90
54680;DHT22;40578;53.178;5.846;2023-08-08T01:42:16;13.70;99.90
54680;DHT22;40578;53.178;5.846;2023-08-08T01:44:43;13.70;99.90
54680;DHT22;40578;53.178;5.846;2023-08-08T01:47:09;13.70;99.90
54680;DHT22;40578;53.178;5.846;2023-08-08T01:49:35;13.80;99.90
54680;DHT22;40578;53.178;5.846;2023-08-08T01:52:00;13.70;99.90
54680;DHT22;40578;53.178;5.846;2023-08-08T01:54:26;13.70;99.90
54680;DHT22;40578;53.178;5.846;2023-08-08T01:56:52;13.70;99.90
54680;DHT22;40578;53.178;5.846;2023-08-08T01:59:17;13.70;99.90
54680;DHT22;40578;53.178;5.846;2023-08-08T02:01:43;13.70;99.90
54680;DHT22;40578;53.178;5.846;2023-08-08T02:04:08;14.30;99.90
54680;DHT22;40578;53.178;5.846;2023-08-08T02:06:34;13.80;99.90
54680;DHT22;40578;53.178;5.846;2023-08-08T02:09:00;13.90;99.90
54680;DHT22;40578;53.178;5.846;2023-08-08T02:11:25;13.90;99.90
54680;DHT22;40578;53.178;5.846;2023-08-08T02:13:51;13.90;99.90
54680;DHT22;40578;53.178;5.846;2023-08-08T02:16:16;13.90;99.90
54680;DHT22;40578;53.178;5.846;2023-08-08T02:18:42;13.90;99.90
54680;DHT22;40578;53.178;5.846;2023-08-08T02:21:08;14.00;99.90
54680;DHT22;40578;53.178;5.846;2023-08-08T02:23:34;13.90;99.90
54680;DHT22;40578;53.178;5.846;2023-08-08T02:26:00;14.10;99.90
54680;DHT22;40578;53.178;5.846;2023-08-08T02:28:26;13.90;99.90
54680;DHT22;40578;53.178;5.846;2023-08-08T02:30:52;14.00;99.90
54680;DHT22;40578;53.178;5.846;2023-08-08T02:33:18;14.00;99.90
54680;DHT22;40578;53.178;5.846;2023-08-08T02:35:44;14.00;99.90
54680;DHT22;40578;53.178;5.846;2023-08-08T02:38:10;14.00;99.90
54680;DHT22;40578;53.178;5.846;2023-08-08T02:40:35;14.00;99.90
54680;DHT22;40578;53.178;5.846;2023-08-08T02:43:01;14.00;99.90
54680;DHT22;40578;53.178;5.846;2023-08-08T02:45:27;13.90;99.90
54680;DHT22;40578;53.178;5.846;2023-08-08T02:47:52;13.80;99.90
54680;DHT22;40578;53.178;5.846;2023-08-08T02:50:18;13.90;99.90
54680;DHT22;40578;53.178;5.846;2023-08-08T02:52:44;14.00;99.90
54680;DHT22;40578;53.178;5.846;2023-08-08T02:55:09;13.90;99.90
54680;DHT22;40578;53.178;5.846;2023-08-08T02:57:35;13.90;99.90
54680;DHT22;40578;53.178;5.846;2023-08-08T03:00:00;13.90;99.90
54680;DHT22;40578;53.178;5.846;2023-08-08T03:02:26;13.90;99.90
54680;DHT22;40578;53.178;5.846;2023-08-08T03:04:52;14.00;99.90
54680;DHT22;40578;53.178;5.846;2023-08-08T03:07:17;13.90;99.90
54680;DHT22;40578;53.178;5.846;2023-08-08T03:09:43;13.90;99.90
54680;DHT22;40578;53.178;5.846;2023-08-08T03:12:08;14.50;99.90
54680;DHT22;40578;53.178;5.846;2023-08-08T03:14:34;13.80;99.90
54680;DHT22;40578;53.178;5.846;2023-08-08T03:17:00;13.70;99.90
54680;DHT22;40578;53.178;5.846;2023-08-08T03:19:26;13.70;99.90
54680;DHT22;40578;53.178;5.846;2023-08-08T03:21:51;13.70;99.90
54680;DHT22;40578;53.178;5.846;2023-08-08T03:24:17;13.70;99.90
54680;DHT22;40578;53.178;5.846;2023-08-08T03:26:43;13.80;99.90
54680;DHT22;40578;53.178;5.846;2023-08-08T03:29:08;13.80;99.90
54680;DHT22;40578;53.178;5.846;2023-08-08T03:31:36;13.80;99.90
54680;DHT22;40578;53.178;5.846;2023-08-08T03:34:02;13.80;99.90
54680;DHT22;40578;53.178;5.846;2023-08-08T03:36:28;13.70;99.90
54680;DHT22;40578;53.178;5.846;2023-08-08T03:38:54;13.70;99.90
54680;DHT22;40578;53.178;5.846;2023-08-08T03:41:19;13.80;99.90
54680;DHT22;40578;53.178;5.846;2023-08-08T03:43:45;13.80;99.90
54680;DHT22;40578;53.178;5.846;2023-08-08T03:46:11;13.80;99.90
54680;DHT22;40578;53.178;5.846;2023-08-08T03:48:37;13.80;99.90
54680;DHT22;40578;53.178;5.846;2023-08-08T03:51:03;13.80;99.90
54680;DHT22;40578;53.178;5.846;2023-08-08T03:53:29;13.90;99.90
54680;DHT22;40578;53.178;5.846;2023-08-08T03:55:54;14.00;99.90
54680;DHT22;40578;53.178;5.846;2023-08-08T03:58:20;13.90;99.90
54680;DHT22;40578;53.178;5.846;2023-08-08T04:00:46;13.90;99.90
54680;DHT22;40578;53.178;5.846;2023-08-08T04:03:15;13.80;99.90
54680;DHT22;40578;53.178;5.846;2023-08-08T04:05:45;13.90;99.90
54680;DHT22;40578;53.178;5.846;2023-08-08T04:08:12;13.80;99.90
54680;DHT22;40578;53.178;5.846;2023-08-08T04:10:38;13.70;99.90
54680;DHT22;40578;53.178;5.846;2023-08-08T04:13:04;13.80;99.90
54680;DHT22;40578;53.178;5.846;2023-08-08T04:15:29;13.70;99.90
54680;DHT22;40578;53.178;5.846;2023-08-08T04:17:55;14.20;99.90
54680;DHT22;40578;53.178;5.846;2023-08-08T04:20:20;13.70;99.90
54680;DHT22;40578;53.178;5.846;2023-08-08T04:22:46;13.70;99.90
54680;DHT22;40578;53.178;5.846;2023-08-08T04:25:12;13.70;99.90
54680;DHT22;40578;53.178;5.846;2023-08-08T04:27:37;13.70;99.90
54680;DHT22;40578;53.178;5.846;2023-08-08T04:30:03;13.70;99.90
54680;DHT22;40578;53.178;5.846;2023-08-08T04:32:29;13.70;99.90
54680;DHT22;40578;53.178;5.846;2023-08-08T04:34:55;13.70;99.90
54680;DHT22;40578;53.178;5.846;2023-08-08T04:37:21;13.70;99.90
54680;DHT22;40578;53.178;5.846;2023-08-08T04:39:47;13.70;99.90
54680;DHT22;40578;53.178;5.846;2023-08-08T04:42:12;13.70;99.90
54680;DHT22;40578;53.178;5.846;2023-08-08T04:44:38;13.70;99.90
54680;DHT22;40578;53.178;5.846;2023-08-08T04:47:04;13.70;99.90
54680;DHT22;40578;53.178;5.846;2023-08-08T04:49:29;13.70;99.90
54680;DHT22;40578;53.178;5.846;2023-08-08T04:51:55;13.90;99.90
54680;DHT22;40578;53.178;5.846;2023-08-08T04:54:20;13.60;99.90
54680;DHT22;40578;53.178;5.846;2023-08-08T04:56:46;13.60;99.90
54680;DHT22;40578;53.178;5.846;2023-08-08T04:59:12;13.50;99.90
54680;DHT22;40578;53.178;5.846;2023-08-08T05:01:37;13.70;99.90
54680;DHT22;40578;53.178;5.846;2023-08-08T05:04:03;14.00;99.90
54680;DHT22;40578;53.178;5.846;2023-08-08T05:06:29;14.40;99.90
54680;DHT22;40578;53.178;5.846;2023-08-08T05:08:55;14.80;99.90
54680;DHT22;40578;53.178;5.846;2023-08-08T05:11:22;15.20;99.90
54680;DHT22;40578;53.178;5.846;2023-08-08T05:13:48;15.30;99.90
54680;DHT22;40578;53.178;5.846;2023-08-08T05:16:13;15.50;99.90
54680;DHT22;40578;53.178;5.846;2023-08-08T05:18:39;15.80;99.90
54680;DHT22;40578;53.178;5.846;2023-08-08T05:21:06;15.90;99.90
54680;DHT22;40578;53.178;5.846;2023-08-08T05:23:31;15.90;99.90
54680;DHT22;40578;53.178;5.846;2023-08-08T05:25:57;15.60;99.90
54680;DHT22;40578;53.178;5.846;2023-08-08T05:28:22;15.20;99.90
54680;DHT22;40578;53.178;5.846;2023-08-08T05:30:48;15.00;99.90
54680;DHT22;40578;53.178;5.846;2023-08-08T05:33:13;14.90;99.90
54680;DHT22;40578;53.178;5.846;2023-08-08T05:35:39;14.80;99.90
54680;DHT22;40578;53.178;5.846;2023-08-08T05:38:05;14.80;99.90
54680;DHT22;40578;53.178;5.846;2023-08-08T05:40:30;14.80;99.90
54680;DHT22;40578;53.178;5.846;2023-08-08T05:42:56;14.60;99.90
54680;DHT22;40578;53.178;5.846;2023-08-08T05:45:21;14.60;99.90
54680;DHT22;40578;53.178;5.846;2023-08-08T05:47:47;14.50;99.90
54680;DHT22;40578;53.178;5.846;2023-08-08T05:50:12;14.60;99.90
54680;DHT22;40578;53.178;5.846;2023-08-08T05:52:38;14.70;99.90
54680;DHT22;40578;53.178;5.846;2023-08-08T05:55:04;14.70;99.90
54680;DHT22;40578;53.178;5.846;2023-08-08T05:57:30;14.70;99.90
54680;DHT22;40578;53.178;5.846;2023-08-08T05:59:55;14.80;99.90
54680;DHT22;40578;53.178;5.846;2023-08-08T06:02:21;15.00;99.90
54680;DHT22;40578;53.178;5.846;2023-08-08T06:04:47;15.30;99.90
54680;DHT22;40578;53.178;5.846;2023-08-08T06:07:12;15.10;99.90
54680;DHT22;40578;53.178;5.846;2023-08-08T06:09:38;15.10;99.90
54680;DHT22;40578;53.178;5.846;2023-08-08T06:12:04;15.10;99.90
54680;DHT22;40578;53.178;5.846;2023-08-08T06:14:30;15.10;99.90
54680;DHT22;40578;53.178;5.846;2023-08-08T06:16:56;15.20;99.90
54680;DHT22;40578;53.178;5.846;2023-08-08T06:19:22;15.20;99.90
54680;DHT22;40578;53.178;5.846;2023-08-08T06:21:47;15.40;99.90
54680;DHT22;40578;53.178;5.846;2023-08-08T06:24:14;15.20;99.90
54680;DHT22;40578;53.178;5.846;2023-08-08T06:26:39;15.50;99.90
54680;DHT22;40578;53.178;5.846;2023-08-08T06:29:05;15.50;99.90
54680;DHT22;40578;53.178;5.846;2023-08-08T06:31:31;15.70;99.90
54680;DHT22;40578;53.178;5.846;2023-08-08T06:33:56;15.50;99.90
54680;DHT22;40578;53.178;5.846;2023-08-08T06:36:22;15.50;99.90
54680;DHT22;40578;53.178;5.846;2023-08-08T06:38:48;15.60;99.90
54680;DHT22;40578;53.178;5.846;2023-08-08T06:41:13;15.70;99.90
54680;DHT22;40578;53.178;5.846;2023-08-08T06:43:39;15.90;99.90
54680;DHT22;40578;53.178;5.846;2023-08-08T06:46:05;15.70;99.90
54680;DHT22;40578;53.178;5.846;2023-08-08T06:48:30;15.80;99.90
54680;DHT22;40578;53.178;5.846;2023-08-08T06:50:56;15.90;99.90
54680;DHT22;40578;53.178;5.846;2023-08-08T06:53:22;15.80;99.90
54680;DHT22;40578;53.178;5.846;2023-08-08T06:55:48;15.70;99.90
54680;DHT22;40578;53.178;5.846;2023-08-08T06:58:13;15.70;99.90
54680;DHT22;40578;53.178;5.846;2023-08-08T07:00:39;15.80;99.90
54680;DHT22;40578;53.178;5.846;2023-08-08T07:03:05;15.80;99.90
54680;DHT22;40578;53.178;5.846;2023-08-08T07:05:30;15.80;99.90
54680;DHT22;40578;53.178;5.846;2023-08-08T07:07:56;15.80;99.90
54680;DHT22;40578;53.178;5.846;2023-08-08T07:10:22;15.80;99.90
54680;DHT22;40578;53.178;5.846;2023-08-08T07:12:47;15.90;99.90
54680;DHT22;40578;53.178;5.846;2023-08-08T07:15:14;15.90;99.90
54680;DHT22;40578;53.178;5.846;2023-08-08T07:17:40;15.90;99.90
54680;DHT22;40578;53.178;5.846;2023-08-08T07:20:06;15.90;99.90
54680;DHT22;40578;53.178;5.846;2023-08-08T07:22:32;16.00;99.90
54680;DHT22;40578;53.178;5.846;2023-08-08T07:24:58;16.10;99.90
54680;DHT22;40578;53.178;5.846;2023-08-08T07:27:25;16.00;99.90
54680;DHT22;40578;53.178;5.846;2023-08-08T07:29:51;16.10;99.90
54680;DHT22;40578;53.178;5.846;2023-08-08T07:32:17;16.70;99.90
54680;DHT22;40578;53.178;5.846;2023-08-08T07:34:42;16.20;99.90
54680;DHT22;40578;53.178;5.846;2023-08-08T07:37:08;16.10;99.90
54680;DHT22;40578;53.178;5.846;2023-08-08T07:39:34;16.30;99.90
54680;DHT22;40578;53.178;5.846;2023-08-08T07:41:59;16.30;99.90
54680;DHT22;40578;53.178;5.846;2023-08-08T07:44:25;16.30;99.90
54680;DHT22;40578;53.178;5.846;2023-08-08T07:46:51;16.40;99.90
54680;DHT22;40578;53.178;5.846;2023-08-08T07:49:16;16.30;99.90
54680;DHT22;40578;53.178;5.846;2023-08-08T07:51:42;16.30;99.90
54680;DHT22;40578;53.178;5.846;2023-08-08T07:54:07;16.30;99.90
54680;DHT22;40578;53.178;5.846;2023-08-08T07:56:35;16.20;99.90
54680;DHT22;40578;53.178;5.846;2023-08-08T07:59:01;16.20;99.90
54680;DHT22;40578;53.178;5.846;2023-08-08T08:01:27;16.20;99.90
54680;DHT22;40578;53.178;5.846;2023-08-08T08:03:53;16.20;99.90
54680;DHT22;40578;53.178;5.846;2023-08-08T08:06:19;16.20;99.90
54680;DHT22;40578;53.178;5.846;2023-08-08T08:08:44;16.20;99.90
54680;DHT22;40578;53.178;5.846;2023-08-08T08:11:10;16.20;99.90
54680;DHT22;40578;53.178;5.846;2023-08-08T08:13:36;16.20;99.90
54680;DHT22;40578;53.178;5.846;2023-08-08T08:16:02;16.20;99.90
54680;DHT22;40578;53.178;5.846;2023-08-08T08:18:28;16.30;99.90
54680;DHT22;40578;53.178;5.846;2023-08-08T08:20:55;16.40;99.90
54680;DHT22;40578;53.178;5.846;2023-08-08T08:23:21;16.50;99.90
54680;DHT22;40578;53.178;5.846;2023-08-08T08:25:46;16.50;99.90
54680;DHT22;40578;53.178;5.846;2023-08-08T08:28:14;16.60;99.90
54680;DHT22;40578;53.178;5.846;2023-08-08T08:30:40;16.70;99.90
54680;DHT22;40578;53.178;5.846;2023-08-08T08:33:05;16.70;99.90
54680;DHT22;40578;53.178;5.846;2023-08-08T08:35:34;16.60;99.90
54680;DHT22;40578;53.178;5.846;2023-08-08T08:38:00;16.50;99.90
54680;DHT22;40578;53.178;5.846;2023-08-08T08:40:26;16.50;99.90
54680;DHT22;40578;53.178;5.846;2023-08-08T08:42:53;16.70;99.90
54680;DHT22;40578;53.178;5.846;2023-08-08T08:45:20;16.70;99.90
54680;DHT22;40578;53.178;5.846;2023-08-08T08:47:46;16.70;99.90
54680;DHT22;40578;53.178;5.846;2023-08-08T08:50:15;16.70;99.90
54680;DHT22;40578;53.178;5.846;2023-08-08T08:52:42;16.80;99.90
54680;DHT22;40578;53.178;5.846;2023-08-08T08:55:08;16.90;99.90
54680;DHT22;40578;53.178;5.846;2023-08-08T08:57:35;16.80;99.90
54680;DHT22;40578;53.178;5.846;2023-08-08T09:00:01;17.10;99.90
54680;DHT22;40578;53.178;5.846;2023-08-08T09:02:26;17.00;99.90
54680;DHT22;40578;53.178;5.846;2023-08-08T09:04:52;16.80;99.90
54680;DHT22;40578;53.178;5.846;2023-08-08T09:07:20;16.70;99.90
54680;DHT22;40578;53.178;5.846;2023-08-08T09:09:48;16.70;99.90
54680;DHT22;40578;53.178;5.846;2023-08-08T09:12:14;16.70;99.90
54680;DHT22;40578;53.178;5.846;2023-08-08T09:14:42;16.60;99.90
54680;DHT22;40578;53.178;5.846;2023-08-08T09:17:14;16.80;99.90
54680;DHT22;40578;53.178;5.846;2023-08-08T09:19:44;16.60;99.90
54680;DHT22;40578;53.178;5.846;2023-08-08T09:22:11;16.70;99.90
54680;DHT22;40578;53.178;5.846;2023-08-08T09:24:39;17.00;99.90
54680;DHT22;40578;53.178;5.846;2023-08-08T09:27:07;16.80;99.90
54680;DHT22;40578;53.178;5.846;2023-08-08T09:29:33;17.00;99.90
54680;DHT22;40578;53.178;5.846;2023-08-08T09:31:58;17.20;99.90
54680;DHT22;40578;53.178;5.846;2023-08-08T09:34:25;17.30;99.90
54680;DHT22;40578;53.178;5.846;2023-08-08T09:36:52;16.90;99.90
54680;DHT22;40578;53.178;5.846;2023-08-08T09:39:18;16.60;99.90
54680;DHT22;40578;53.178;5.846;2023-08-08T09:41:46;16.40;99.90
54680;DHT22;40578;53.178;5.846;2023-08-08T09:44:12;16.40;99.90
54680;DHT22;40578;53.178;5.846;2023-08-08T09:46:38;16.30;99.90
54680;DHT22;40578;53.178;5.846;2023-08-08T09:49:05;16.50;99.90
54680;DHT22;40578;53.178;5.846;2023-08-08T09:51:31;16.50;99.90
54680;DHT22;40578;53.178;5.846;2023-08-08T09:53:59;16.50;99.90
54680;DHT22;40578;53.178;5.846;2023-08-08T09:56:25;16.30;99.90
54680;DHT22;40578;53.178;5.846;2023-08-08T09:58:52;16.50;99.90
54680;DHT22;40578;53.178;5.846;2023-08-08T10:01:20;16.60;99.90
54680;DHT22;40578;53.178;5.846;2023-08-08T10:03:46;16.70;99.90
54680;DHT22;40578;53.178;5.846;2023-08-08T10:06:12;16.70;99.90
54680;DHT22;40578;53.178;5.846;2023-08-08T10:08:38;16.70;99.90
54680;DHT22;40578;53.178;5.846;2023-08-08T10:11:05;16.70;99.90
54680;DHT22;40578;53.178;5.846;2023-08-08T10:13:32;16.90;99.90
54680;DHT22;40578;53.178;5.846;2023-08-08T10:16:07;17.10;99.90
54680;DHT22;40578;53.178;5.846;2023-08-08T10:18:33;17.30;99.90
54680;DHT22;40578;53.178;5.846;2023-08-08T10:20:59;17.40;99.90
54680;DHT22;40578;53.178;5.846;2023-08-08T10:23:24;17.50;99.90
54680;DHT22;40578;53.178;5.846;2023-08-08T10:25:52;17.40;99.90
54680;DHT22;40578;53.178;5.846;2023-08-08T10:28:21;17.60;99.90
54680;DHT22;40578;53.178;5.846;2023-08-08T10:33:23;17.60;99.90
54680;DHT22;40578;53.178;5.846;2023-08-08T10:35:59;17.60;99.90
54680;DHT22;40578;53.178;5.846;2023-08-08T10:38:26;17.50;99.90
54680;DHT22;40578;53.178;5.846;2023-08-08T10:40:59;17.50;99.90
54680;DHT22;40578;53.178;5.846;2023-08-08T10:43:29;17.40;99.90
54680;DHT22;40578;53.178;5.846;2023-08-08T10:46:04;17.20;99.90
54680;DHT22;40578;53.178;5.846;2023-08-08T10:48:30;17.10;99.90
54680;DHT22;40578;53.178;5.846;2023-08-08T10:50:59;17.00;99.90
54680;DHT22;40578;53.178;5.846;2023-08-08T10:53:26;16.80;99.90
54680;DHT22;40578;53.178;5.846;2023-08-08T10:56:00;16.90;99.90
54680;DHT22;40578;53.178;5.846;2023-08-08T10:58:39;17.30;99.90
54680;DHT22;40578;53.178;5.846;2023-08-08T11:01:05;17.30;99.90
54680;DHT22;40578;53.178;5.846;2023-08-08T11:03:40;17.40;99.90
54680;DHT22;40578;53.178;5.846;2023-08-08T11:06:07;17.40;99.90
54680;DHT22;40578;53.178;5.846;2023-08-08T11:08:34;17.50;99.90
54680;DHT22;40578;53.178;5.846;2023-08-08T11:11:02;17.50;99.90
54680;DHT22;40578;53.178;5.846;2023-08-08T11:13:28;17.60;99.90
54680;DHT22;40578;53.178;5.846;2023-08-08T11:15:54;17.50;99.90
54680;DHT22;40578;53.178;5.846;2023-08-08T11:18:20;17.60;99.90
54680;DHT22;40578;53.178;5.846;2023-08-08T11:20:47;17.60;99.90
54680;DHT22;40578;53.178;5.846;2023-08-08T11:23:13;17.40;99.90
54680;DHT22;40578;53.178;5.846;2023-08-08T11:25:43;17.50;99.90
54680;DHT22;40578;53.178;5.846;2023-08-08T11:28:09;17.60;99.90
54680;DHT22;40578;53.178;5.846;2023-08-08T11:30:37;17.70;99.90
54680;DHT22;40578;53.178;5.846;2023-08-08T11:33:03;17.80;99.90
54680;DHT22;40578;53.178;5.846;2023-08-08T11:35:29;17.90;99.90
54680;DHT22;40578;53.178;5.846;2023-08-08T11:37:57;17.90;99.90
54680;DHT22;40578;53.178;5.846;2023-08-08T11:40:25;17.70;99.90
54680;DHT22;40578;53.178;5.846;2023-08-08T11:42:52;17.70;99.90
54680;DHT22;40578;53.178;5.846;2023-08-08T11:45:18;17.70;99.90
54680;DHT22;40578;53.178;5.846;2023-08-08T11:47:44;17.70;99.90
54680;DHT22;40578;53.178;5.846;2023-08-08T11:50:10;18.20;99.90
54680;DHT22;40578;53.178;5.846;2023-08-08T11:52:41;18.00;99.90
54680;DHT22;40578;53.178;5.846;2023-08-08T11:55:08;18.10;99.90
54680;DHT22;40578;53.178;5.846;2023-08-08T11:57:35;18.20;99.90
54680;DHT22;40578;53.178;5.846;2023-08-08T12:00:04;18.30;99.90
54680;DHT22;40578;53.178;5.846;2023-08-08T12:02:32;18.50;99.90
54680;DHT22;40578;53.178;5.846;2023-08-08T12:05:04;18.30;99.90
54680;DHT22;40578;53.178;5.846;2023-08-08T12:07:32;18.30;99.90
54680;DHT22;40578;53.178;5.846;2023-08-08T12:09:59;18.00;99.90
54680;DHT22;40578;53.178;5.846;2023-08-08T12:12:26;18.00;99.90
54680;DHT22;40578;53.178;5.846;2023-08-08T12:14:54;18.20;99.90
54680;DHT22;40578;53.178;5.846;2023-08-08T12:17:21;18.20;99.90
54680;DHT22;40578;53.178;5.846;2023-08-08T12:19:47;18.20;99.90
54680;DHT22;40578;53.178;5.846;2023-08-08T12:22:14;17.90;99.90
54680;DHT22;40578;53.178;5.846;2023-08-08T12:24:40;17.70;99.90
54680;DHT22;40578;53.178;5.846;2023-08-08T12:27:06;17.40;99.90
54680;DHT22;40578;53.178;5.846;2023-08-08T12:29:31;17.40;99.90
54680;DHT22;40578;53.178;5.846;2023-08-08T12:31:57;17.60;99.90
54680;DHT22;40578;53.178;5.846;2023-08-08T12:34:23;18.10;99.90
54680;DHT22;40578;53.178;5.846;2023-08-08T12:36:48;18.50;99.90
54680;DHT22;40578;53.178;5.846;2023-08-08T12:39:14;18.60;99.90
54680;DHT22;40578;53.178;5.846;2023-08-08T12:41:40;18.50;99.90
54680;DHT22;40578;53.178;5.846;2023-08-08T12:44:06;18.40;99.90
54680;DHT22;40578;53.178;5.846;2023-08-08T12:46:33;18.40;99.90
54680;DHT22;40578;53.178;5.846;2023-08-08T12:48:59;18.40;99.90
54680;DHT22;40578;53.178;5.846;2023-08-08T12:51:25;18.60;99.90
54680;DHT22;40578;53.178;5.846;2023-08-08T12:53:50;18.40;99.90
54680;DHT22;40578;53.178;5.846;2023-08-08T12:56:16;18.50;99.90
54680;DHT22;40578;53.178;5.846;2023-08-08T12:58:42;18.80;99.90
54680;DHT22;40578;53.178;5.846;2023-08-08T13:01:07;18.90;99.90
54680;DHT22;40578;53.178;5.846;2023-08-08T13:03:33;19.20;99.90
54680;DHT22;40578;53.178;5.846;2023-08-08T13:06:02;19.30;99.90
54680;DHT22;40578;53.178;5.846;2023-08-08T13:08:27;19.50;99.90
54680;DHT22;40578;53.178;5.846;2023-08-08T13:10:53;19.00;99.90
54680;DHT22;40578;53.178;5.846;2023-08-08T13:13:19;18.60;99.90
54680;DHT22;40578;53.178;5.846;2023-08-08T13:15:45;18.10;99.90
54680;DHT22;40578;53.178;5.846;2023-08-08T13:18:12;17.90;99.90
54680;DHT22;40578;53.178;5.846;2023-08-08T13:20:38;17.70;99.90
54680;DHT22;40578;53.178;5.846;2023-08-08T13:23:04;17.80;99.90
54680;DHT22;40578;53.178;5.846;2023-08-08T13:25:29;18.10;99.90
54680;DHT22;40578;53.178;5.846;2023-08-08T13:27:56;18.30;99.90
54680;DHT22;40578;53.178;5.846;2023-08-08T13:30:22;18.20;99.90
54680;DHT22;40578;53.178;5.846;2023-08-08T13:32:48;18.20;99.90
54680;DHT22;40578;53.178;5.846;2023-08-08T13:35:14;17.90;99.90
54680;DHT22;40578;53.178;5.846;2023-08-08T13:37:39;18.10;99.90
54680;DHT22;40578;53.178;5.846;2023-08-08T13:40:06;18.40;99.90
54680;DHT22;40578;53.178;5.846;2023-08-08T13:42:31;18.70;99.90
54680;DHT22;40578;53.178;5.846;2023-08-08T13:44:57;18.80;99.90
54680;DHT22;40578;53.178;5.846;2023-08-08T13:47:23;19.00;99.90
54680;DHT22;40578;53.178;5.846;2023-08-08T13:49:48;18.90;99.90
54680;DHT22;40578;53.178;5.846;2023-08-08T13:52:14;18.60;99.90
54680;DHT22;40578;53.178;5.846;2023-08-08T13:54:39;18.30;99.90
54680;DHT22;40578;53.178;5.846;2023-08-08T13:57:05;18.00;99.90
54680;DHT22;40578;53.178;5.846;2023-08-08T13:59:31;17.90;99.90
54680;DHT22;40578;53.178;5.846;2023-08-08T14:01:56;17.80;99.90
54680;DHT22;40578;53.178;5.846;2023-08-08T14:04:22;18.10;99.90
54680;DHT22;40578;53.178;5.846;2023-08-08T14:06:47;18.10;99.90
54680;DHT22;40578;53.178;5.846;2023-08-08T14:09:13;18.20;99.90
54680;DHT22;40578;53.178;5.846;2023-08-08T14:11:39;18.30;99.90
54680;DHT22;40578;53.178;5.846;2023-08-08T14:14:04;18.50;99.90
54680;DHT22;40578;53.178;5.846;2023-08-08T14:16:30;18.40;99.90
54680;DHT22;40578;53.178;5.846;2023-08-08T14:18:56;18.40;99.90
54680;DHT22;40578;53.178;5.846;2023-08-08T14:21:21;18.30;99.90
54680;DHT22;40578;53.178;5.846;2023-08-08T14:23:47;18.10;99.90
54680;DHT22;40578;53.178;5.846;2023-08-08T14:26:13;17.90;99.90
54680;DHT22;40578;53.178;5.846;2023-08-08T14:28:38;17.70;99.90
54680;DHT22;40578;53.178;5.846;2023-08-08T14:31:04;17.50;99.90
54680;DHT22;40578;53.178;5.846;2023-08-08T14:33:32;17.50;99.90
54680;DHT22;40578;53.178;5.846;2023-08-08T14:35:58;17.50;99.90
54680;DHT22;40578;53.178;5.846;2023-08-08T14:38:24;17.30;99.90
54680;DHT22;40578;53.178;5.846;2023-08-08T14:40:51;17.40;99.90
54680;DHT22;40578;53.178;5.846;2023-08-08T14:43:18;17.40;99.90
54680;DHT22;40578;53.178;5.846;2023-08-08T14:45:44;17.80;99.90
54680;DHT22;40578;53.178;5.846;2023-08-08T14:48:09;17.90;99.90
54680;DHT22;40578;53.178;5.846;2023-08-08T14:50:35;18.00;99.90
54680;DHT22;40578;53.178;5.846;2023-08-08T14:53:01;17.50;99.90
54680;DHT22;40578;53.178;5.846;2023-08-08T14:55:27;17.40;99.90
54680;DHT22;40578;53.178;5.846;2023-08-08T14:57:53;17.20;99.90
54680;DHT22;40578;53.178;5.846;2023-08-08T15:00:18;16.90;99.90
54680;DHT22;40578;53.178;5.846;2023-08-08T15:02:44;17.10;99.90
54680;DHT22;40578;53.178;5.846;2023-08-08T15:05:10;17.00;99.90
54680;DHT22;40578;53.178;5.846;2023-08-08T15:07:37;17.00;99.90
54680;DHT22;40578;53.178;5.846;2023-08-08T15:10:03;17.40;99.90
54680;DHT22;40578;53.178;5.846;2023-08-08T15:12:28;17.60;99.90
54680;DHT22;40578;53.178;5.846;2023-08-08T15:14:54;17.40;99.90
54680;DHT22;40578;53.178;5.846;2023-08-08T15:17:20;17.40;99.90
54680;DHT22;40578;53.178;5.846;2023-08-08T15:19:45;17.40;99.90
54680;DHT22;40578;53.178;5.846;2023-08-08T15:22:11;17.30;99.90
54680;DHT22;40578;53.178;5.846;2023-08-08T15:24:36;17.20;99.90
54680;DHT22;40578;53.178;5.846;2023-08-08T15:27:03;17.20;99.90